createdAt,value
2017-07-23T00:00:19.421Z,17.6
2017-07-23T00:01:19.120Z,17.6
2017-07-23T00:02:18.208Z,17.6
2017-07-23T00:03:17.433Z,17.6
2017-07-23T00:04:17.011Z,17.6
2017-07-23T00:05:16.088Z,17.6
2017-07-23T00:05:46.594Z,17.6
2017-07-23T00:06:17.102Z,17.6
2017-07-23T00:06:47.637Z,17.6
2017-07-23T00:07:18.034Z,17.6
2017-07-23T00:07:48.427Z,17.6
2017-07-23T00:08:18.696Z,17.5
2017-07-23T00:08:49.600Z,17.5
2017-07-23T00:10:12.844Z,17.6
2017-07-23T00:11:12.431Z,17.5
2017-07-23T00:13:10.901Z,17.5
2017-07-23T00:14:09.984Z,17.5
2017-07-23T00:15:09.691Z,17.5
2017-07-23T00:16:08.780Z,17.5
2017-07-23T00:17:07.980Z,17.5
2017-07-23T00:18:07.570Z,17.5
2017-07-23T00:19:07.047Z,17.5
2017-07-23T00:19:37.565Z,17.5
2017-07-23T00:20:08.078Z,17.5
2017-07-23T00:21:05.155Z,17.5
2017-07-23T00:22:04.752Z,17.5
2017-07-23T00:23:03.956Z,17.5
2017-07-23T00:24:03.662Z,17.5
2017-07-23T00:25:02.866Z,17.5
2017-07-23T00:26:02.208Z,17.4
2017-07-23T00:27:01.419Z,17.5
2017-07-23T00:28:00.503Z,17.4
2017-07-23T00:29:00.095Z,17.4
2017-07-23T00:29:59.314Z,17.4
2017-07-23T00:30:58.895Z,17.4
2017-07-23T00:31:57.860Z,17.4
2017-07-23T00:32:57.451Z,17.4
2017-07-23T00:33:56.689Z,17.4
2017-07-23T00:34:55.777Z,17.4
2017-07-23T00:35:55.365Z,17.4
2017-07-23T00:36:54.575Z,17.4
2017-07-23T00:37:53.796Z,17.4
2017-07-23T00:38:24.221Z,17.4
2017-07-23T00:38:54.768Z,17.4
2017-07-23T00:39:25.056Z,17.4
2017-07-23T00:40:51.942Z,17.4
2017-07-23T00:41:51.293Z,17.4
2017-07-23T00:42:50.508Z,17.4
2017-07-23T00:43:49.721Z,17.4
2017-07-23T00:44:49.302Z,17.4
2017-07-23T00:45:48.504Z,17.3
2017-07-23T00:46:47.699Z,17.4
2017-07-23T00:47:46.907Z,17.4
2017-07-23T00:48:46.614Z,17.3
2017-07-23T00:49:17.009Z,17.3
2017-07-23T00:49:47.533Z,17.3
2017-07-23T00:50:45.227Z,17.3
2017-07-23T00:51:44.318Z,17.3
2017-07-23T00:52:43.520Z,17.3
2017-07-23T00:53:43.238Z,17.3
2017-07-23T00:54:13.754Z,17.3
2017-07-23T00:54:44.153Z,17.3
2017-07-23T00:55:41.845Z,17.3
2017-07-23T00:56:41.051Z,17.3
2017-07-23T00:57:40.008Z,17.3
2017-07-23T00:58:39.489Z,17.3
2017-07-23T00:59:38.950Z,17.3
2017-07-23T01:00:38.144Z,17.3
2017-07-23T01:01:37.214Z,17.2
2017-07-23T01:02:36.909Z,17.2
2017-07-23T01:03:35.994Z,17.2
2017-07-23T01:04:06.375Z,17.2
2017-07-23T01:04:37.018Z,17.2
2017-07-23T01:05:07.595Z,17.2
2017-07-23T01:06:33.975Z,17.2
2017-07-23T01:07:33.688Z,17.2
2017-07-23T01:08:32.903Z,17.2
2017-07-23T01:09:32.105Z,17.2
2017-07-23T01:10:31.297Z,17.2
2017-07-23T01:11:30.882Z,17.2
2017-07-23T01:12:30.075Z,17.2
2017-07-23T01:13:29.281Z,17.2
2017-07-23T01:14:28.469Z,17.2
2017-07-23T01:14:58.973Z,17.2
2017-07-23T01:15:29.499Z,17.2
2017-07-23T01:16:00.009Z,17.2
2017-07-23T01:16:30.406Z,17.2
2017-07-23T01:17:00.919Z,17.2
2017-07-23T01:17:31.332Z,17.2
2017-07-23T01:18:26.022Z,17.2
2017-07-23T01:19:25.218Z,17.2
2017-07-23T01:20:24.305Z,17.2
2017-07-23T01:21:23.903Z,17.2
2017-07-23T01:22:22.859Z,17.2
2017-07-23T01:23:22.331Z,17.2
2017-07-23T01:24:21.919Z,17.2
2017-07-23T01:25:21.121Z,17.2
2017-07-23T01:26:20.314Z,17.2
2017-07-23T01:27:19.521Z,17.2
2017-07-23T01:28:19.106Z,17.2
2017-07-23T01:29:18.309Z,17.2
2017-07-23T01:30:17.888Z,17.2
2017-07-23T01:31:17.097Z,17.2
2017-07-23T01:32:16.058Z,17.2
2017-07-23T01:33:15.524Z,17.1
2017-07-23T01:34:14.989Z,17.2
2017-07-23T01:34:45.501Z,17.2
2017-07-23T01:35:16.021Z,17.2
2017-07-23T01:36:13.705Z,17.1
2017-07-23T01:37:12.793Z,17.1
2017-07-23T01:38:12.005Z,17.1
2017-07-23T01:39:11.707Z,17.1
2017-07-23T01:40:10.913Z,17.1
2017-07-23T01:41:10.110Z,17.1
2017-07-23T01:42:09.302Z,17.1
2017-07-23T01:43:08.522Z,17.1
2017-07-23T01:44:08.100Z,17.1
2017-07-23T01:44:38.608Z,17.1
2017-07-23T01:45:09.142Z,17.1
2017-07-23T01:45:39.655Z,17.1
2017-07-23T01:46:10.048Z,17.1
2017-07-23T01:46:40.322Z,17.1
2017-07-23T01:47:10.839Z,17.1
2017-07-23T01:47:41.358Z,17.1
2017-07-23T01:49:04.723Z,17.1
2017-07-23T01:50:03.923Z,17.1
2017-07-23T01:51:03.131Z,17.1
2017-07-23T01:52:02.357Z,17.1
2017-07-23T01:53:02.071Z,17.1
2017-07-23T01:54:01.275Z,17
2017-07-23T01:55:00.496Z,17
2017-07-23T01:55:31.018Z,17
2017-07-23T01:56:01.531Z,17
2017-07-23T01:56:31.947Z,17
2017-07-23T01:57:02.463Z,17.1
2017-07-23T01:57:32.974Z,17.1
2017-07-23T01:58:03.502Z,17
2017-07-23T01:58:34.002Z,17
2017-07-23T01:59:57.248Z,17
2017-07-23T02:00:56.441Z,17
2017-07-23T02:01:55.409Z,17
2017-07-23T02:02:55.119Z,17
2017-07-23T02:03:54.209Z,17
2017-07-23T02:04:53.561Z,17
2017-07-23T02:05:52.760Z,17
2017-07-23T02:06:51.846Z,17
2017-07-23T02:07:51.434Z,17
2017-07-23T02:08:50.636Z,17
2017-07-23T02:09:21.030Z,17
2017-07-23T02:09:51.548Z,17
2017-07-23T02:10:49.618Z,17
2017-07-23T02:11:48.819Z,17
2017-07-23T02:12:48.018Z,17
2017-07-23T02:13:47.219Z,17
2017-07-23T02:14:46.420Z,16.9
2017-07-23T02:15:46.154Z,17
2017-07-23T02:16:16.662Z,17
2017-07-23T02:16:47.045Z,17
2017-07-23T02:17:44.728Z,17
2017-07-23T02:18:43.818Z,17
2017-07-23T02:19:43.017Z,17
2017-07-23T02:20:42.718Z,17
2017-07-23T02:21:41.816Z,16.9
2017-07-23T02:22:41.023Z,16.9
2017-07-23T02:23:40.626Z,16.9
2017-07-23T02:24:39.724Z,16.9
2017-07-23T02:25:38.820Z,16.9
2017-07-23T02:26:38.521Z,16.9
2017-07-23T02:27:09.036Z,16.9
2017-07-23T02:27:39.556Z,16.9
2017-07-23T02:28:09.942Z,16.9
2017-07-23T02:28:40.332Z,16.9
2017-07-23T02:29:10.721Z,16.9
2017-07-23T02:30:35.589Z,16.9
2017-07-23T02:32:34.185Z,16.9
2017-07-23T02:33:33.383Z,16.9
2017-07-23T02:34:32.968Z,16.9
2017-07-23T02:35:32.057Z,16.9
2017-07-23T02:36:31.141Z,16.9
2017-07-23T02:37:30.864Z,16.9
2017-07-23T02:38:01.370Z,16.9
2017-07-23T02:38:31.889Z,16.8
2017-07-23T02:39:02.394Z,16.8
2017-07-23T02:39:32.571Z,16.8
2017-07-23T02:40:28.651Z,16.8
2017-07-23T02:41:27.754Z,16.8
2017-07-23T02:43:26.741Z,16.8
2017-07-23T02:44:25.936Z,16.8
2017-07-23T02:45:25.128Z,16.8
2017-07-23T02:46:24.340Z,16.8
2017-07-23T02:47:23.545Z,16.8
2017-07-23T02:48:23.241Z,16.8
2017-07-23T02:49:22.443Z,16.8
2017-07-23T02:50:21.530Z,16.8
2017-07-23T02:51:20.738Z,16.8
2017-07-23T02:52:20.442Z,16.8
2017-07-23T02:53:19.522Z,16.9
2017-07-23T02:54:18.738Z,16.8
2017-07-23T02:55:18.326Z,16.9
2017-07-23T02:56:17.409Z,16.9
2017-07-23T02:57:16.989Z,16.9
2017-07-23T02:58:16.174Z,16.9
2017-07-23T02:59:15.366Z,16.9
2017-07-23T03:00:14.436Z,16.9
2017-07-23T03:01:13.896Z,16.9
2017-07-23T03:02:13.486Z,16.8
2017-07-23T03:03:12.555Z,16.9
2017-07-23T03:04:11.760Z,16.9
2017-07-23T03:04:42.265Z,16.9
2017-07-23T03:05:12.780Z,16.8
2017-07-23T03:06:10.476Z,16.9
2017-07-23T03:07:09.676Z,16.8
2017-07-23T03:08:08.894Z,16.9
2017-07-23T03:09:08.597Z,16.8
2017-07-23T03:10:07.800Z,16.8
2017-07-23T03:11:06.890Z,16.8
2017-07-23T03:12:06.110Z,16.8
2017-07-23T03:13:05.693Z,16.8
2017-07-23T03:14:05.156Z,16.8
2017-07-23T03:15:04.118Z,16.8
2017-07-23T03:16:03.475Z,16.8
2017-07-23T03:17:03.065Z,16.8
2017-07-23T03:18:02.164Z,16.8
2017-07-23T03:19:01.242Z,16.8
2017-07-23T03:20:00.952Z,16.8
2017-07-23T03:21:00.035Z,16.8
2017-07-23T03:21:59.110Z,16.8
2017-07-23T03:22:58.713Z,16.8
2017-07-23T03:23:57.799Z,16.8
2017-07-23T03:24:28.313Z,16.8
2017-07-23T03:24:58.824Z,16.8
2017-07-23T03:25:56.521Z,16.8
2017-07-23T03:26:55.864Z,16.8
2017-07-23T03:27:54.941Z,16.8
2017-07-23T03:28:54.656Z,16.8
2017-07-23T03:29:53.856Z,16.8
2017-07-23T03:30:53.078Z,16.8
2017-07-23T03:31:52.311Z,16.8
2017-07-23T03:32:51.514Z,16.8
2017-07-23T03:33:51.217Z,16.8
2017-07-23T03:34:21.605Z,16.8
2017-07-23T03:34:52.114Z,16.8
2017-07-23T03:35:22.623Z,16.8
2017-07-23T03:35:53.010Z,16.8
2017-07-23T03:36:23.512Z,16.8
2017-07-23T03:37:48.383Z,16.8
2017-07-23T03:38:47.578Z,16.8
2017-07-23T03:39:46.661Z,16.8
2017-07-23T03:40:45.850Z,16.8
2017-07-23T03:41:45.429Z,16.9
2017-07-23T03:42:44.641Z,16.9
2017-07-23T03:43:43.840Z,16.9
2017-07-23T03:44:43.050Z,16.9
2017-07-23T03:45:13.555Z,16.9
2017-07-23T03:45:43.834Z,16.9
2017-07-23T03:46:14.350Z,16.9
2017-07-23T03:46:44.750Z,16.9
2017-07-23T03:47:15.155Z,16.9
2017-07-23T03:48:40.518Z,16.9
2017-07-23T03:49:39.718Z,16.9
2017-07-23T03:50:39.187Z,16.9
2017-07-23T03:51:38.381Z,16.9
2017-07-23T03:52:37.463Z,16.9
2017-07-23T03:53:37.057Z,16.9
2017-07-23T03:54:36.134Z,16.9
2017-07-23T03:55:35.839Z,17
2017-07-23T03:56:34.920Z,17
2017-07-23T03:57:34.122Z,17
2017-07-23T03:58:04.510Z,17
2017-07-23T03:59:32.780Z,17
2017-07-23T04:00:31.861Z,17
2017-07-23T04:01:31.576Z,17
2017-07-23T04:02:30.782Z,17
2017-07-23T04:03:29.994Z,17
2017-07-23T04:04:00.507Z,17
2017-07-23T04:04:31.020Z,17
2017-07-23T04:05:01.534Z,17
2017-07-23T04:05:32.046Z,17
2017-07-23T04:06:02.563Z,17
2017-07-23T04:06:33.201Z,17
2017-07-23T04:07:27.358Z,17
2017-07-23T04:09:25.955Z,17.1
2017-07-23T04:10:25.164Z,17.1
2017-07-23T04:11:24.363Z,17.1
2017-07-23T04:12:23.568Z,17.1
2017-07-23T04:13:23.305Z,17.1
2017-07-23T04:14:22.511Z,17.1
2017-07-23T04:14:52.793Z,17.1
2017-07-23T04:15:23.071Z,17.1
2017-07-23T04:15:53.585Z,17.1
2017-07-23T04:16:24.109Z,17.2
2017-07-23T04:16:54.498Z,17.2
2017-07-23T04:17:24.883Z,17.2
2017-07-23T04:17:55.304Z,17.2
2017-07-23T04:18:25.818Z,17.2
2017-07-23T04:18:56.094Z,17.2
2017-07-23T04:20:18.442Z,17.2
2017-07-23T04:21:17.670Z,17.2
2017-07-23T04:22:16.856Z,17.3
2017-07-23T04:23:16.055Z,17.3
2017-07-23T04:24:15.262Z,17.3
2017-07-23T04:25:14.969Z,17.4
2017-07-23T04:25:45.427Z,17.4
2017-07-23T04:26:15.939Z,17.4
2017-07-23T04:26:46.465Z,17.4
2017-07-23T04:27:16.984Z,17.4
2017-07-23T04:27:47.380Z,17.4
2017-07-23T04:28:17.777Z,17.4
2017-07-23T04:28:48.294Z,17.4
2017-07-23T04:30:11.158Z,17.5
2017-07-23T04:31:10.634Z,17.5
2017-07-23T04:32:10.100Z,17.5
2017-07-23T04:33:09.319Z,17.5
2017-07-23T04:34:08.522Z,17.5
2017-07-23T04:35:07.597Z,17.5
2017-07-23T04:36:07.201Z,17.5
2017-07-23T04:37:06.286Z,17.6
2017-07-23T04:38:05.485Z,17.6
2017-07-23T04:39:05.196Z,17.6
2017-07-23T04:40:04.169Z,17.6
2017-07-23T04:41:03.876Z,17.6
2017-07-23T04:42:03.085Z,17.7
2017-07-23T04:43:02.280Z,17.7
2017-07-23T04:44:01.471Z,17.7
2017-07-23T04:45:00.681Z,17.7
2017-07-23T04:46:00.374Z,17.8
2017-07-23T04:46:59.591Z,17.8
2017-07-23T04:47:58.797Z,17.8
2017-07-23T04:48:58.005Z,17.8
2017-07-23T04:49:57.704Z,17.9
2017-07-23T04:50:56.910Z,17.9
2017-07-23T04:51:56.109Z,17.9
2017-07-23T04:52:55.325Z,17.9
2017-07-23T04:53:54.394Z,17.9
2017-07-23T04:54:53.872Z,18.1
2017-07-23T04:55:53.089Z,18.1
2017-07-23T04:56:52.807Z,18.1
2017-07-23T04:57:51.889Z,18.2
2017-07-23T04:58:22.286Z,18.2
2017-07-23T04:58:52.802Z,18.3
2017-07-23T04:59:50.756Z,18.3
2017-07-23T05:00:49.962Z,18.4
2017-07-23T05:01:49.162Z,18.4
2017-07-23T05:02:48.743Z,18.4
2017-07-23T05:03:47.824Z,18.4
2017-07-23T05:04:47.023Z,18.4
2017-07-23T05:05:46.606Z,18.4
2017-07-23T05:06:45.811Z,18.4
2017-07-23T05:07:44.894Z,18.4
2017-07-23T05:08:44.235Z,18.4
2017-07-23T05:09:43.814Z,18.4
2017-07-23T05:10:42.905Z,18.4
2017-07-23T05:11:42.623Z,18.4
2017-07-23T05:12:41.708Z,18.4
2017-07-23T05:13:40.909Z,18.4
2017-07-23T05:14:40.492Z,18.4
2017-07-23T05:15:39.697Z,18.4
2017-07-23T05:16:39.172Z,18.4
2017-07-23T05:17:38.388Z,18.4
2017-07-23T05:18:37.589Z,18.4
2017-07-23T05:19:36.787Z,18.4
2017-07-23T05:20:36.492Z,18.5
2017-07-23T05:21:35.693Z,18.5
2017-07-23T05:22:34.890Z,18.4
2017-07-23T05:23:33.966Z,18.4
2017-07-23T05:24:04.752Z,18.4
2017-07-23T05:24:35.154Z,18.4
2017-07-23T05:25:05.666Z,18.4
2017-07-23T05:25:36.250Z,18.4
2017-07-23T05:26:06.773Z,18.4
2017-07-23T05:26:37.173Z,18.4
2017-07-23T05:27:31.337Z,18.3
2017-07-23T05:28:31.058Z,18.3
2017-07-23T05:29:30.276Z,18.3
2017-07-23T05:30:29.481Z,18.3
2017-07-23T05:31:28.573Z,18.4
2017-07-23T05:32:28.277Z,18.3
2017-07-23T05:33:27.355Z,18.3
2017-07-23T05:34:27.062Z,18.3
2017-07-23T05:34:57.572Z,18.3
2017-07-23T05:35:27.981Z,18.4
2017-07-23T05:35:58.491Z,18.4
2017-07-23T05:36:28.894Z,18.3
2017-07-23T05:36:59.402Z,18.3
2017-07-23T05:37:29.918Z,18.3
2017-07-23T05:38:23.975Z,18.3
2017-07-23T05:39:23.703Z,18.3
2017-07-23T05:40:22.899Z,18.3
2017-07-23T05:41:22.103Z,18.3
2017-07-23T05:42:21.678Z,18.3
2017-07-23T05:43:20.759Z,18.3
2017-07-23T05:44:19.969Z,18.3
2017-07-23T05:45:19.193Z,18.3
2017-07-23T05:46:18.441Z,18.3
2017-07-23T05:47:18.137Z,18.2
2017-07-23T05:48:17.216Z,18.2
2017-07-23T05:49:16.922Z,18.2
2017-07-23T05:50:16.161Z,18.2
2017-07-23T05:51:15.371Z,18.2
2017-07-23T05:52:14.462Z,18.2
2017-07-23T05:53:14.173Z,18.2
2017-07-23T05:53:44.695Z,18.2
2017-07-23T05:54:15.217Z,18.2
2017-07-23T05:54:45.602Z,18.2
2017-07-23T05:56:11.977Z,18.2
2017-07-23T05:57:11.063Z,18.2
2017-07-23T05:58:10.783Z,18.2
2017-07-23T05:59:09.872Z,18.3
2017-07-23T06:00:09.081Z,18.3
2017-07-23T06:01:08.443Z,18.3
2017-07-23T06:02:08.157Z,18.3
2017-07-23T06:03:07.356Z,18.3
2017-07-23T06:03:37.756Z,18.3
2017-07-23T06:04:08.267Z,18.3
2017-07-23T06:04:38.776Z,18.3
2017-07-23T06:05:09.292Z,18.4
2017-07-23T06:05:39.814Z,18.4
2017-07-23T06:06:10.197Z,18.4
2017-07-23T06:06:40.708Z,18.4
2017-07-23T06:07:11.225Z,18.4
2017-07-23T06:07:41.756Z,18.4
2017-07-23T06:08:12.034Z,18.4
2017-07-23T06:08:42.432Z,18.4
2017-07-23T06:10:03.332Z,18.4
2017-07-23T06:11:01.911Z,18.4
2017-07-23T06:12:01.130Z,18.5
2017-07-23T06:13:00.337Z,18.5
2017-07-23T06:13:59.788Z,18.5
2017-07-23T06:14:58.734Z,18.5
2017-07-23T06:15:58.311Z,18.5
2017-07-23T06:16:28.840Z,18.5
2017-07-23T06:16:59.358Z,18.5
2017-07-23T06:17:29.774Z,18.5
2017-07-23T06:18:00.291Z,18.5
2017-07-23T06:18:30.579Z,18.5
2017-07-23T06:19:55.985Z,18.6
2017-07-23T06:20:55.187Z,18.6
2017-07-23T06:21:54.386Z,18.6
2017-07-23T06:22:53.978Z,18.7
2017-07-23T06:23:53.064Z,18.7
2017-07-23T06:24:52.656Z,18.7
2017-07-23T06:25:51.851Z,18.7
2017-07-23T06:26:51.061Z,18.7
2017-07-23T06:27:50.771Z,18.7
2017-07-23T06:28:49.865Z,18.7
2017-07-23T06:29:49.065Z,18.7
2017-07-23T06:30:48.764Z,18.7
2017-07-23T06:31:47.970Z,18.7
2017-07-23T06:32:47.167Z,18.7
2017-07-23T06:33:46.246Z,18.7
2017-07-23T06:34:45.839Z,18.7
2017-07-23T06:35:45.195Z,18.7
2017-07-23T06:36:15.712Z,18.7
2017-07-23T06:36:46.104Z,18.8
2017-07-23T06:37:16.603Z,18.8
2017-07-23T06:37:47.011Z,18.8
2017-07-23T06:38:43.200Z,18.8
2017-07-23T06:39:42.398Z,18.8
2017-07-23T06:40:42.099Z,18.7
2017-07-23T06:41:41.306Z,18.8
2017-07-23T06:42:40.382Z,18.8
2017-07-23T06:43:40.090Z,18.8
2017-07-23T06:44:39.176Z,18.8
2017-07-23T06:45:38.645Z,18.8
2017-07-23T06:46:37.845Z,18.8
2017-07-23T06:47:08.365Z,18.8
2017-07-23T06:47:38.676Z,18.8
2017-07-23T06:48:09.184Z,18.8
2017-07-23T06:49:36.062Z,18.8
2017-07-23T06:50:35.263Z,18.8
2017-07-23T06:51:34.358Z,18.8
2017-07-23T06:52:34.068Z,18.8
2017-07-23T06:53:33.162Z,18.8
2017-07-23T06:54:32.751Z,18.8
2017-07-23T06:55:31.835Z,18.9
2017-07-23T06:56:31.037Z,18.9
2017-07-23T06:57:30.619Z,18.9
2017-07-23T06:58:01.134Z,18.9
2017-07-23T06:58:31.522Z,18.9
2017-07-23T06:59:02.053Z,18.9
2017-07-23T06:59:32.448Z,18.9
2017-07-23T07:00:28.519Z,18.9
2017-07-23T07:01:27.707Z,18.9
2017-07-23T07:02:27.168Z,18.9
2017-07-23T07:03:26.757Z,18.9
2017-07-23T07:04:25.957Z,18.9
2017-07-23T07:05:25.161Z,18.9
2017-07-23T07:06:24.876Z,18.9
2017-07-23T07:07:24.074Z,18.9
2017-07-23T07:08:23.257Z,19
2017-07-23T07:09:22.723Z,19
2017-07-23T07:10:21.917Z,19
2017-07-23T07:11:21.133Z,19
2017-07-23T07:12:20.845Z,19
2017-07-23T07:13:20.049Z,19
2017-07-23T07:13:50.573Z,19
2017-07-23T07:14:20.975Z,19
2017-07-23T07:15:18.678Z,19.1
2017-07-23T07:16:18.152Z,19.1
2017-07-23T07:17:17.234Z,19.1
2017-07-23T07:18:16.933Z,19.1
2017-07-23T07:19:16.122Z,19.1
2017-07-23T07:20:15.201Z,19.1
2017-07-23T07:21:14.781Z,19.1
2017-07-23T07:22:13.867Z,19.2
2017-07-23T07:23:13.589Z,19.2
2017-07-23T07:24:12.674Z,19.2
2017-07-23T07:25:12.380Z,19.2
2017-07-23T07:26:11.465Z,19.2
2017-07-23T07:27:10.674Z,19.3
2017-07-23T07:29:09.654Z,19.3
2017-07-23T07:30:08.856Z,19.3
2017-07-23T07:31:08.054Z,19.3
2017-07-23T07:32:07.761Z,19.3
2017-07-23T07:33:06.748Z,19.3
2017-07-23T07:34:06.336Z,19.4
2017-07-23T07:35:05.800Z,19.4
2017-07-23T07:36:04.765Z,19.4
2017-07-23T07:37:04.352Z,19.4
2017-07-23T07:38:03.444Z,19.4
2017-07-23T07:39:03.034Z,19.4
2017-07-23T07:40:02.117Z,19.4
2017-07-23T07:41:01.807Z,19.5
2017-07-23T07:42:01.015Z,19.5
2017-07-23T07:43:00.498Z,19.5
2017-07-23T07:43:31.008Z,19.5
2017-07-23T07:44:01.512Z,19.5
2017-07-23T07:44:31.910Z,19.5
2017-07-23T07:45:02.426Z,19.6
2017-07-23T07:45:32.945Z,19.6
2017-07-23T07:46:57.794Z,19.6
2017-07-23T07:47:57.373Z,19.6
2017-07-23T07:48:56.473Z,19.6
2017-07-23T07:49:55.675Z,19.6
2017-07-23T07:50:55.939Z,19.7
2017-07-23T07:51:54.525Z,19.7
2017-07-23T07:52:53.724Z,19.7
2017-07-23T07:53:24.249Z,19.7
2017-07-23T07:53:54.663Z,19.8
2017-07-23T07:54:25.062Z,19.8
2017-07-23T07:54:55.445Z,19.8
2017-07-23T07:55:25.834Z,19.8
2017-07-23T07:55:56.346Z,19.8
2017-07-23T07:56:26.755Z,19.8
2017-07-23T07:56:57.157Z,19.9
2017-07-23T07:57:27.657Z,19.9
2017-07-23T07:58:49.890Z,19.9
2017-07-23T07:59:49.594Z,20
2017-07-23T08:00:48.672Z,20
2017-07-23T08:01:47.871Z,20
2017-07-23T08:02:47.587Z,20.1
2017-07-23T08:03:46.795Z,20.1
2017-07-23T08:04:45.990Z,20.1
2017-07-23T08:05:45.575Z,20.2
2017-07-23T08:06:45.033Z,20.2
2017-07-23T08:07:15.417Z,20.2
2017-07-23T08:07:45.807Z,20.3
2017-07-23T08:08:16.314Z,20.3
2017-07-23T08:09:42.959Z,20.4
2017-07-23T08:10:42.561Z,20.4
2017-07-23T08:11:41.652Z,20.5
2017-07-23T08:12:40.862Z,20.5
2017-07-23T08:13:40.328Z,20.6
2017-07-23T08:14:39.421Z,20.6
2017-07-23T08:15:39.027Z,20.6
2017-07-23T08:16:38.277Z,20.6
2017-07-23T08:17:37.981Z,20.6
2017-07-23T08:18:36.960Z,20.6
2017-07-23T08:19:36.703Z,20.5
2017-07-23T08:20:35.661Z,20.5
2017-07-23T08:21:35.369Z,20.5
2017-07-23T08:22:34.332Z,20.5
2017-07-23T08:23:33.925Z,20.5
2017-07-23T08:24:33.625Z,20.5
2017-07-23T08:25:04.156Z,20.5
2017-07-23T08:25:34.676Z,20.5
2017-07-23T08:26:04.945Z,20.5
2017-07-23T08:26:35.236Z,20.5
2017-07-23T08:27:05.660Z,20.5
2017-07-23T08:28:30.914Z,20.4
2017-07-23T08:29:30.003Z,20.4
2017-07-23T08:30:29.710Z,20.4
2017-07-23T08:31:28.794Z,20.4
2017-07-23T08:32:28.384Z,20.4
2017-07-23T08:33:27.580Z,20.4
2017-07-23T08:34:27.302Z,20.3
2017-07-23T08:35:26.391Z,20.4
2017-07-23T08:35:56.925Z,20.4
2017-07-23T08:36:27.211Z,20.4
2017-07-23T08:36:57.607Z,20.4
2017-07-23T08:37:28.004Z,20.4
2017-07-23T08:37:58.509Z,20.4
2017-07-23T08:39:23.882Z,20.4
2017-07-23T08:40:23.081Z,20.3
2017-07-23T08:41:22.670Z,20.3
2017-07-23T08:42:21.782Z,20.3
2017-07-23T08:43:21.489Z,20.3
2017-07-23T08:44:20.969Z,20.3
2017-07-23T08:45:20.054Z,20.3
2017-07-23T08:46:19.130Z,20.3
2017-07-23T08:47:18.607Z,20.3
2017-07-23T08:48:18.331Z,20.3
2017-07-23T08:48:48.884Z,20.3
2017-07-23T08:49:19.385Z,20.3
2017-07-23T08:50:16.946Z,20.3
2017-07-23T08:51:16.545Z,20.3
2017-07-23T08:52:15.744Z,20.3
2017-07-23T08:53:14.824Z,20.3
2017-07-23T08:54:14.403Z,20.3
2017-07-23T08:55:13.358Z,20.3
2017-07-23T08:56:12.828Z,20.3
2017-07-23T08:57:12.539Z,20.3
2017-07-23T08:58:12.140Z,20.3
2017-07-23T08:59:11.340Z,20.3
2017-07-23T09:00:10.542Z,20.2
2017-07-23T09:01:10.009Z,20.2
2017-07-23T09:02:09.109Z,20.2
2017-07-23T09:03:08.586Z,20.2
2017-07-23T09:04:08.058Z,20.2
2017-07-23T09:05:07.407Z,20.2
2017-07-23T09:06:06.873Z,20.2
2017-07-23T09:07:06.455Z,20.2
2017-07-23T09:08:05.538Z,20.2
2017-07-23T09:09:04.733Z,20.1
2017-07-23T09:10:04.457Z,20.2
2017-07-23T09:11:03.433Z,20.2
2017-07-23T09:12:03.028Z,20.2
2017-07-23T09:13:02.624Z,20.2
2017-07-23T09:14:01.583Z,20.2
2017-07-23T09:15:01.053Z,20.2
2017-07-23T09:16:00.749Z,20.3
2017-07-23T09:16:59.711Z,20.3
2017-07-23T09:17:59.410Z,20.3
2017-07-23T09:18:58.602Z,20.4
2017-07-23T09:19:57.811Z,20.4
2017-07-23T09:20:57.672Z,20.4
2017-07-23T09:21:56.869Z,20.5
2017-07-23T09:22:56.075Z,20.6
2017-07-23T09:23:55.284Z,20.6
2017-07-23T09:25:54.385Z,20.7
2017-07-23T09:26:53.583Z,20.8
2017-07-23T09:27:52.794Z,20.8
2017-07-23T09:28:52.437Z,20.8
2017-07-23T09:29:51.668Z,20.9
2017-07-23T09:30:51.154Z,21
2017-07-23T09:31:50.362Z,21.1
2017-07-23T09:32:49.938Z,21.2
2017-07-23T09:33:49.123Z,21.2
2017-07-23T09:34:19.526Z,21.2
2017-07-23T09:34:50.038Z,21.2
2017-07-23T09:35:20.435Z,21.2
2017-07-23T09:36:47.598Z,21.3
2017-07-23T09:37:46.811Z,21.3
2017-07-23T09:38:45.891Z,21.4
2017-07-23T09:39:45.473Z,21.4
2017-07-23T09:40:44.944Z,21.5
2017-07-23T09:41:43.926Z,21.6
2017-07-23T09:42:43.520Z,21.7
2017-07-23T09:43:43.119Z,21.8
2017-07-23T09:44:13.629Z,21.8
2017-07-23T09:44:43.907Z,21.9
2017-07-23T09:45:14.297Z,21.9
2017-07-23T09:45:44.690Z,22
2017-07-23T09:46:15.080Z,22
2017-07-23T09:46:45.592Z,22.1
2017-07-23T09:47:15.990Z,22.1
2017-07-23T09:48:39.736Z,22.2
2017-07-23T09:49:39.322Z,22.3
2017-07-23T09:50:38.517Z,22.4
2017-07-23T09:51:37.985Z,22.5
2017-07-23T09:52:37.571Z,22.5
2017-07-23T09:53:36.775Z,22.4
2017-07-23T09:54:36.474Z,22.4
2017-07-23T09:55:35.676Z,22.4
2017-07-23T09:56:34.759Z,22.3
2017-07-23T09:57:34.359Z,22.2
2017-07-23T09:58:04.864Z,22.2
2017-07-23T09:58:35.380Z,22.2
2017-07-23T09:59:33.073Z,22.2
2017-07-23T10:00:32.659Z,22.1
2017-07-23T10:01:31.747Z,22.2
2017-07-23T10:02:31.330Z,22.2
2017-07-23T10:03:30.909Z,22.2
2017-07-23T10:04:01.091Z,22.2
2017-07-23T10:04:31.606Z,22.2
2017-07-23T10:05:02.121Z,22.2
2017-07-23T10:05:32.629Z,22.2
2017-07-23T10:06:03.139Z,22.2
2017-07-23T10:06:33.527Z,22.3
2017-07-23T10:07:28.589Z,22.3
2017-07-23T10:08:27.785Z,22.4
2017-07-23T10:09:27.491Z,22.3
2017-07-23T10:10:26.694Z,22.3
2017-07-23T10:11:26.287Z,22.4
2017-07-23T10:12:25.364Z,22.3
2017-07-23T10:13:25.061Z,22.4
2017-07-23T10:14:24.251Z,22.4
2017-07-23T10:14:54.770Z,22.4
2017-07-23T10:15:25.277Z,22.3
2017-07-23T10:15:55.778Z,22.3
2017-07-23T10:16:26.299Z,22.3
2017-07-23T10:16:56.819Z,22.3
2017-07-23T10:17:27.327Z,22.3
2017-07-23T10:17:57.835Z,22.3
2017-07-23T10:18:28.338Z,22.3
2017-07-23T10:18:58.849Z,22.3
2017-07-23T10:20:20.691Z,22.3
2017-07-23T10:21:20.400Z,22.2
2017-07-23T10:22:19.607Z,22.2
2017-07-23T10:23:19.077Z,22.2
2017-07-23T10:24:18.152Z,22.2
2017-07-23T10:25:17.869Z,22.2
2017-07-23T10:26:17.075Z,22.1
2017-07-23T10:26:47.462Z,22.1
2017-07-23T10:27:17.980Z,22.1
2017-07-23T10:27:48.514Z,22.1
2017-07-23T10:28:19.020Z,22.1
2017-07-23T10:28:49.409Z,22.1
2017-07-23T10:30:14.772Z,22.1
2017-07-23T10:31:14.365Z,22.1
2017-07-23T10:32:13.446Z,22.2
2017-07-23T10:33:13.186Z,22.3
2017-07-23T10:34:12.270Z,22.3
2017-07-23T10:35:11.986Z,22.4
2017-07-23T10:36:10.937Z,22.5
2017-07-23T10:37:10.797Z,22.5
2017-07-23T10:38:10.005Z,22.6
2017-07-23T10:39:09.356Z,22.7
2017-07-23T10:40:08.931Z,22.8
2017-07-23T10:41:08.015Z,22.7
2017-07-23T10:42:07.720Z,22.7
2017-07-23T10:43:07.331Z,22.8
2017-07-23T10:44:06.528Z,22.8
2017-07-23T10:45:06.248Z,22.9
2017-07-23T10:46:05.469Z,22.9
2017-07-23T10:47:04.537Z,23
2017-07-23T10:47:35.038Z,23
2017-07-23T10:48:05.551Z,23
2017-07-23T10:49:03.506Z,23.1
2017-07-23T10:50:03.226Z,23
2017-07-23T10:51:02.314Z,23
2017-07-23T10:52:01.920Z,23.1
2017-07-23T10:53:01.400Z,23
2017-07-23T10:54:00.864Z,22.9
2017-07-23T10:55:00.339Z,22.8
2017-07-23T10:55:59.431Z,22.9
2017-07-23T10:56:59.036Z,22.9
2017-07-23T10:57:58.624Z,22.9
2017-07-23T10:58:57.585Z,23
2017-07-23T10:59:57.303Z,23
2017-07-23T11:00:56.379Z,23
2017-07-23T11:01:55.969Z,23
2017-07-23T11:02:55.552Z,22.9
2017-07-23T11:03:54.908Z,22.9
2017-07-23T11:04:54.515Z,22.9
2017-07-23T11:05:54.100Z,22.9
2017-07-23T11:06:53.295Z,22.9
2017-07-23T11:07:52.491Z,22.9
2017-07-23T11:08:52.063Z,22.9
2017-07-23T11:09:51.762Z,23
2017-07-23T11:10:50.957Z,23
2017-07-23T11:11:50.564Z,22.9
2017-07-23T11:12:49.767Z,22.9
2017-07-23T11:13:49.471Z,23
2017-07-23T11:14:48.670Z,23
2017-07-23T11:15:48.374Z,23.1
2017-07-23T11:16:47.586Z,23.1
2017-07-23T11:17:47.048Z,23.1
2017-07-23T11:18:46.619Z,23.1
2017-07-23T11:19:45.835Z,23.1
2017-07-23T11:20:45.025Z,23.1
2017-07-23T11:21:44.377Z,23.2
2017-07-23T11:22:44.082Z,23.3
2017-07-23T11:23:43.798Z,23.4
2017-07-23T11:24:42.909Z,23.4
2017-07-23T11:25:13.424Z,23.4
2017-07-23T11:25:43.926Z,23.5
2017-07-23T11:26:14.455Z,23.5
2017-07-23T11:27:41.347Z,23.8
2017-07-23T11:28:40.818Z,23.8
2017-07-23T11:29:40.290Z,23.9
2017-07-23T11:30:39.478Z,24
2017-07-23T11:31:39.071Z,24
2017-07-23T11:32:38.274Z,23.9
2017-07-23T11:33:37.861Z,23.9
2017-07-23T11:34:37.568Z,24
2017-07-23T11:35:36.529Z,24
2017-07-23T11:36:36.127Z,23.9
2017-07-23T11:37:35.712Z,23.8
2017-07-23T11:38:35.305Z,23.7
2017-07-23T11:39:34.505Z,23.6
2017-07-23T11:40:34.221Z,23.5
2017-07-23T11:41:33.309Z,23.4
2017-07-23T11:42:32.899Z,23.3
2017-07-23T11:43:32.494Z,23.2
2017-07-23T11:44:31.719Z,23.3
2017-07-23T11:45:31.437Z,23.3
2017-07-23T11:46:30.893Z,23.4
2017-07-23T11:47:30.093Z,23.4
2017-07-23T11:48:29.788Z,23.4
2017-07-23T11:49:28.998Z,23.6
2017-07-23T11:50:28.703Z,23.6
2017-07-23T11:51:27.897Z,23.4
2017-07-23T11:52:27.604Z,23.6